sensor_id;sensor_type;location;lat;lon;timestamp;pressure;altitude;pressure_sealevel;temperature;humidity
60433;BME280;46286;48.098;11.590;2022-08-21T00:01:57;95618.22;;;15.05;100.00
60433;BME280;46286;48.098;11.590;2022-08-21T00:04:23;95613.03;;;15.00;100.00
60433;BME280;46286;48.098;11.590;2022-08-21T00:06:52;95609.41;;;14.96;100.00
60433;BME280;46286;48.098;11.590;2022-08-21T00:09:19;95620.00;;;14.96;100.00
60433;BME280;46286;48.098;11.590;2022-08-21T00:11:45;95612.13;;;14.91;100.00
60433;BME280;46286;48.098;11.590;2022-08-21T00:14:12;95616.38;;;14.92;100.00
60433;BME280;46286;48.098;11.590;2022-08-21T00:16:37;95608.63;;;14.82;100.00
60433;BME280;46286;48.098;11.590;2022-08-21T00:19:04;95607.84;;;14.81;100.00
60433;BME280;46286;48.098;11.590;2022-08-21T00:21:30;95607.63;;;14.78;100.00
60433;BME280;46286;48.098;11.590;2022-08-21T00:23:56;95606.94;;;14.72;100.00
60433;BME280;46286;48.098;11.590;2022-08-21T00:26:22;95600.34;;;14.69;100.00
60433;BME280;46286;48.098;11.590;2022-08-21T00:28:47;95601.53;;;14.63;100.00
60433;BME280;46286;48.098;11.590;2022-08-21T00:31:15;95609.53;;;14.58;100.00
60433;BME280;46286;48.098;11.590;2022-08-21T00:33:41;95606.41;;;14.56;100.00
60433;BME280;46286;48.098;11.590;2022-08-21T00:36:07;95601.41;;;14.54;100.00
60433;BME280;46286;48.098;11.590;2022-08-21T00:38:32;95605.41;;;14.52;100.00
60433;BME280;46286;48.098;11.590;2022-08-21T00:41:01;95606.88;;;14.58;100.00
60433;BME280;46286;48.098;11.590;2022-08-21T00:43:30;95610.72;;;14.52;100.00
60433;BME280;46286;48.098;11.590;2022-08-21T00:45:57;95607.56;;;14.50;100.00
60433;BME280;46286;48.098;11.590;2022-08-21T00:48:24;95610.22;;;14.50;100.00
60433;BME280;46286;48.098;11.590;2022-08-21T00:50:56;95604.41;;;14.48;100.00
60433;BME280;46286;48.098;11.590;2022-08-21T00:53:24;95603.94;;;14.46;100.00
60433;BME280;46286;48.098;11.590;2022-08-21T00:55:51;95605.00;;;14.45;100.00
60433;BME280;46286;48.098;11.590;2022-08-21T00:58:17;95603.44;;;14.44;100.00
60433;BME280;46286;48.098;11.590;2022-08-21T01:00:49;95599.72;;;14.45;100.00
60433;BME280;46286;48.098;11.590;2022-08-21T01:03:18;95600.88;;;14.38;100.00
60433;BME280;46286;48.098;11.590;2022-08-21T01:05:46;95604.59;;;14.37;100.00
60433;BME280;46286;48.098;11.590;2022-08-21T01:08:13;95600.47;;;14.31;100.00
60433;BME280;46286;48.098;11.590;2022-08-21T01:10:41;95593.13;;;14.28;100.00
60433;BME280;46286;48.098;11.590;2022-08-21T01:13:08;95596.75;;;14.32;100.00
60433;BME280;46286;48.098;11.590;2022-08-21T01:15:39;95591.53;;;14.27;100.00
60433;BME280;46286;48.098;11.590;2022-08-21T01:18:08;95589.19;;;14.26;100.00
60433;BME280;46286;48.098;11.590;2022-08-21T01:20:35;95586.41;;;14.17;100.00
60433;BME280;46286;48.098;11.590;2022-08-21T01:23:02;95580.63;;;14.15;100.00
60433;BME280;46286;48.098;11.590;2022-08-21T01:25:29;95583.13;;;14.06;100.00
60433;BME280;46286;48.098;11.590;2022-08-21T01:27:55;95585.50;;;14.08;100.00
60433;BME280;46286;48.098;11.590;2022-08-21T01:30:26;95587.38;;;14.07;100.00
60433;BME280;46286;48.098;11.590;2022-08-21T01:32:53;95577.06;;;14.06;100.00
60433;BME280;46286;48.098;11.590;2022-08-21T01:35:20;95579.19;;;14.03;100.00
60433;BME280;46286;48.098;11.590;2022-08-21T01:37:46;95581.38;;;14.01;100.00
60433;BME280;46286;48.098;11.590;2022-08-21T01:40:13;95589.94;;;13.93;100.00
60433;BME280;46286;48.098;11.590;2022-08-21T01:42:42;95588.41;;;13.92;100.00
60433;BME280;46286;48.098;11.590;2022-08-21T01:45:08;95585.81;;;13.87;100.00
60433;BME280;46286;48.098;11.590;2022-08-21T01:47:35;95588.94;;;13.89;100.00
60433;BME280;46286;48.098;11.590;2022-08-21T01:50:04;95591.13;;;13.87;100.00
60433;BME280;46286;48.098;11.590;2022-08-21T01:52:30;95585.25;;;13.90;100.00
60433;BME280;46286;48.098;11.590;2022-08-21T01:54:55;95578.38;;;13.89;100.00
60433;BME280;46286;48.098;11.590;2022-08-21T01:57:21;95581.59;;;13.86;100.00
60433;BME280;46286;48.098;11.590;2022-08-21T01:59:47;95578.19;;;13.85;100.00
60433;BME280;46286;48.098;11.590;2022-08-21T02:02:12;95575.81;;;13.84;100.00
60433;BME280;46286;48.098;11.590;2022-08-21T02:04:38;95571.69;;;13.78;100.00
60433;BME280;46286;48.098;11.590;2022-08-21T02:07:03;95566.94;;;13.75;100.00
60433;BME280;46286;48.098;11.590;2022-08-21T02:09:29;95562.75;;;13.74;100.00
60433;BME280;46286;48.098;11.590;2022-08-21T02:11:55;95566.94;;;13.75;100.00
60433;BME280;46286;48.098;11.590;2022-08-21T02:14:20;95565.97;;;13.71;100.00
60433;BME280;46286;48.098;11.590;2022-08-21T02:16:46;95565.75;;;13.67;100.00
60433;BME280;46286;48.098;11.590;2022-08-21T02:19:14;95566.25;;;13.69;100.00
60433;BME280;46286;48.098;11.590;2022-08-21T02:21:40;95564.47;;;13.64;100.00
60433;BME280;46286;48.098;11.590;2022-08-21T02:24:07;95563.97;;;13.62;100.00
60433;BME280;46286;48.098;11.590;2022-08-21T02:26:33;95563.97;;;13.62;100.00
60433;BME280;46286;48.098;11.590;2022-08-21T02:28:59;95559.84;;;13.56;100.00
60433;BME280;46286;48.098;11.590;2022-08-21T02:31:25;95560.81;;;13.60;100.00
60433;BME280;46286;48.098;11.590;2022-08-21T02:33:51;95562.75;;;13.55;100.00
60433;BME280;46286;48.098;11.590;2022-08-21T02:36:17;95571.19;;;13.57;100.00
60433;BME280;46286;48.098;11.590;2022-08-21T02:38:43;95562.84;;;13.49;100.00
60433;BME280;46286;48.098;11.590;2022-08-21T02:41:16;95562.13;;;13.44;100.00
60433;BME280;46286;48.098;11.590;2022-08-21T02:43:42;95559.19;;;13.45;100.00
60433;BME280;46286;48.098;11.590;2022-08-21T02:46:09;95555.25;;;13.43;100.00
60433;BME280;46286;48.098;11.590;2022-08-21T02:48:35;95558.41;;;13.45;100.00
60433;BME280;46286;48.098;11.590;2022-08-21T02:51:05;95562.31;;;13.47;100.00
60433;BME280;46286;48.098;11.590;2022-08-21T02:53:31;95557.31;;;13.46;100.00
60433;BME280;46286;48.098;11.590;2022-08-21T02:55:59;95557.41;;;13.41;100.00
60433;BME280;46286;48.098;11.590;2022-08-21T02:58:30;95556.59;;;13.40;100.00
60433;BME280;46286;48.098;11.590;2022-08-21T03:00:57;95562.19;;;13.39;100.00
60433;BME280;46286;48.098;11.590;2022-08-21T03:03:24;95553.78;;;13.31;100.00
60433;BME280;46286;48.098;11.590;2022-08-21T03:05:50;95558.31;;;13.31;100.00
60433;BME280;46286;48.098;11.590;2022-08-21T03:08:16;95562.81;;;13.30;100.00
60433;BME280;46286;48.098;11.590;2022-08-21T03:10:45;95557.53;;;13.30;100.00
60433;BME280;46286;48.098;11.590;2022-08-21T03:13:12;95563.81;;;13.34;100.00
60433;BME280;46286;48.098;11.590;2022-08-21T03:15:37;95563.81;;;13.34;100.00
60433;BME280;46286;48.098;11.590;2022-08-21T03:18:04;95558.59;;;13.29;100.00
60433;BME280;46286;48.098;11.590;2022-08-21T03:20:30;95571.28;;;13.27;100.00
60433;BME280;46286;48.098;11.590;2022-08-21T03:22:57;95562.00;;;13.30;100.00
60433;BME280;46286;48.098;11.590;2022-08-21T03:25:24;95559.66;;;13.28;100.00
60433;BME280;46286;48.098;11.590;2022-08-21T03:27:50;95563.94;;;13.24;100.00
60433;BME280;46286;48.098;11.590;2022-08-21T03:30:18;95555.50;;;13.22;100.00
60433;BME280;46286;48.098;11.590;2022-08-21T03:32:46;95556.56;;;13.21;100.00
60433;BME280;46286;48.098;11.590;2022-08-21T03:35:12;95556.28;;;13.23;100.00
60433;BME280;46286;48.098;11.590;2022-08-21T03:37:38;95558.06;;;13.27;100.00
60433;BME280;46286;48.098;11.590;2022-08-21T03:40:06;95558.63;;;13.24;100.00
60433;BME280;46286;48.098;11.590;2022-08-21T03:42:32;95550.00;;;13.18;100.00
60433;BME280;46286;48.098;11.590;2022-08-21T03:44:58;95560.94;;;13.12;100.00
60433;BME280;46286;48.098;11.590;2022-08-21T03:47:23;95568.34;;;13.10;100.00
60433;BME280;46286;48.098;11.590;2022-08-21T03:49:49;95574.16;;;13.12;100.00
60433;BME280;46286;48.098;11.590;2022-08-21T03:52:14;95563.06;;;13.10;100.00
60433;BME280;46286;48.098;11.590;2022-08-21T03:54:41;95572.84;;;13.09;100.00
60433;BME280;46286;48.098;11.590;2022-08-21T03:57:07;95573.84;;;13.13;100.00
60433;BME280;46286;48.098;11.590;2022-08-21T03:59:34;95573.56;;;13.15;100.00
60433;BME280;46286;48.098;11.590;2022-08-21T04:02:01;95581.50;;;13.15;100.00
60433;BME280;46286;48.098;11.590;2022-08-21T04:04:29;95573.41;;;13.06;100.00
60433;BME280;46286;48.098;11.590;2022-08-21T04:06:56;95578.91;;;13.10;100.00
60433;BME280;46286;48.098;11.590;2022-08-21T04:09:22;95570.50;;;13.08;100.00
60433;BME280;46286;48.098;11.590;2022-08-21T04:11:49;95574.53;;;13.00;100.00
60433;BME280;46286;48.098;11.590;2022-08-21T04:14:15;95581.06;;;13.08;100.00
60433;BME280;46286;48.098;11.590;2022-08-21T04:16:42;95573.25;;;12.97;100.00
60433;BME280;46286;48.098;11.590;2022-08-21T04:19:08;95582.25;;;12.96;100.00
60433;BME280;46286;48.098;11.590;2022-08-21T04:21:35;95581.97;;;12.98;100.00
60433;BME280;46286;48.098;11.590;2022-08-21T04:24:04;95580.19;;;12.93;100.00
60433;BME280;46286;48.098;11.590;2022-08-21T04:26:30;95584.56;;;13.03;100.00
60433;BME280;46286;48.098;11.590;2022-08-21T04:28:57;95575.63;;;12.99;100.00
60433;BME280;46286;48.098;11.590;2022-08-21T04:31:24;95589.88;;;12.98;100.00
60433;BME280;46286;48.098;11.590;2022-08-21T04:33:49;95592.53;;;12.98;100.00
60433;BME280;46286;48.098;11.590;2022-08-21T04:36:16;95600.75;;;12.96;100.00
60433;BME280;46286;48.098;11.590;2022-08-21T04:38:42;95597.13;;;12.87;100.00
60433;BME280;46286;48.098;11.590;2022-08-21T04:41:07;95605.56;;;12.89;100.00
60433;BME280;46286;48.098;11.590;2022-08-21T04:43:33;95597.13;;;12.87;100.00
60433;BME280;46286;48.098;11.590;2022-08-21T04:45:59;95599.28;;;12.85;100.00
60433;BME280;46286;48.098;11.590;2022-08-21T04:48:25;95608.03;;;12.80;100.00
60433;BME280;46286;48.098;11.590;2022-08-21T04:51:07;95606.13;;;12.86;100.00
60433;BME280;46286;48.098;11.590;2022-08-21T04:53:45;95602.97;;;12.84;100.00
60433;BME280;46286;48.098;11.590;2022-08-21T04:56:35;95608.50;;;12.88;100.00
60433;BME280;46286;48.098;11.590;2022-08-21T04:59:04;95606.03;;;12.96;100.00
60433;BME280;46286;48.098;11.590;2022-08-21T05:01:34;95614.00;;;12.91;100.00
60433;BME280;46286;48.098;11.590;2022-08-21T05:04:02;95619.28;;;12.91;100.00
60433;BME280;46286;48.098;11.590;2022-08-21T05:06:33;95609.72;;;12.95;100.00
60433;BME280;46286;48.098;11.590;2022-08-21T05:09:01;95603.44;;;12.91;100.00
60433;BME280;46286;48.098;11.590;2022-08-21T05:11:27;95598.66;;;12.93;100.00
60433;BME280;46286;48.098;11.590;2022-08-21T05:13:53;95600.16;;;12.99;100.00
60433;BME280;46286;48.098;11.590;2022-08-21T05:16:18;95603.88;;;12.98;100.00
60433;BME280;46286;48.098;11.590;2022-08-21T05:18:44;95604.56;;;13.09;100.00
60433;BME280;46286;48.098;11.590;2022-08-21T05:21:09;95602.06;;;13.18;100.00
60433;BME280;46286;48.098;11.590;2022-08-21T05:23:35;95609.22;;;13.17;100.00
60433;BME280;46286;48.098;11.590;2022-08-21T05:26:01;95612.34;;;13.20;100.00
60433;BME280;46286;48.098;11.590;2022-08-21T05:28:27;95613.06;;;13.25;100.00
60433;BME280;46286;48.098;11.590;2022-08-21T05:30:53;95614.13;;;13.24;100.00
60433;BME280;46286;48.098;11.590;2022-08-21T05:33:18;95616.78;;;13.24;100.00
60433;BME280;46286;48.098;11.590;2022-08-21T05:35:44;95605.19;;;13.20;100.00
60433;BME280;46286;48.098;11.590;2022-08-21T05:38:10;95618.94;;;13.22;100.00
60433;BME280;46286;48.098;11.590;2022-08-21T05:40:35;95621.00;;;13.25;100.00
60433;BME280;46286;48.098;11.590;2022-08-21T05:43:02;95618.94;;;13.22;100.00
60433;BME280;46286;48.098;11.590;2022-08-21T05:45:30;95617.31;;;13.26;100.00
60433;BME280;46286;48.098;11.590;2022-08-21T05:47:56;95625.66;;;13.33;100.00
60433;BME280;46286;48.098;11.590;2022-08-21T05:50:22;95623.50;;;13.41;100.00
60433;BME280;46286;48.098;11.590;2022-08-21T05:52:47;95623.41;;;13.46;100.00
60433;BME280;46286;48.098;11.590;2022-08-21T05:55:13;95626.00;;;13.51;100.00
60433;BME280;46286;48.098;11.590;2022-08-21T05:57:38;95632.72;;;13.62;100.00
60433;BME280;46286;48.098;11.590;2022-08-21T06:00:07;95630.56;;;13.64;100.00
60433;BME280;46286;48.098;11.590;2022-08-21T06:02:34;95624.16;;;13.71;100.00
60433;BME280;46286;48.098;11.590;2022-08-21T06:05:00;95621.44;;;13.76;100.00
60433;BME280;46286;48.098;11.590;2022-08-21T06:07:25;95632.56;;;13.92;100.00
60433;BME280;46286;48.098;11.590;2022-08-21T06:09:51;95624.28;;;13.98;100.00
60433;BME280;46286;48.098;11.590;2022-08-21T06:12:16;95627.81;;;14.08;100.00
60433;BME280;46286;48.098;11.590;2022-08-21T06:14:42;95620.81;;;14.17;100.00
60433;BME280;46286;48.098;11.590;2022-08-21T06:17:10;95621.25;;;14.24;100.00
60433;BME280;46286;48.098;11.590;2022-08-21T06:19:36;95620.06;;;14.30;100.00
60433;BME280;46286;48.098;11.590;2022-08-21T06:22:02;95635.94;;;14.30;100.00
60433;BME280;46286;48.098;11.590;2022-08-21T06:24:28;95625.13;;;14.46;100.00
60433;BME280;46286;48.098;11.590;2022-08-21T06:26:54;95630.97;;;14.62;100.00
60433;BME280;46286;48.098;11.590;2022-08-21T06:29:20;95624.31;;;14.64;100.00
60433;BME280;46286;48.098;11.590;2022-08-21T06:31:47;95623.13;;;14.70;100.00
60433;BME280;46286;48.098;11.590;2022-08-21T06:34:14;95638.25;;;14.84;100.00
60433;BME280;46286;48.098;11.590;2022-08-21T06:36:40;95630.81;;;14.86;100.00
60433;BME280;46286;48.098;11.590;2022-08-21T06:39:05;95637.88;;;14.90;100.00
60433;BME280;46286;48.098;11.590;2022-08-21T06:41:31;95634.44;;;15.18;100.00
60433;BME280;46286;48.098;11.590;2022-08-21T06:43:56;95625.59;;;15.22;100.00
60433;BME280;46286;48.098;11.590;2022-08-21T06:46:27;95628.06;;;15.19;100.00
60433;BME280;46286;48.098;11.590;2022-08-21T06:48:53;95629.22;;;15.13;100.00
60433;BME280;46286;48.098;11.590;2022-08-21T06:51:19;95627.25;;;15.32;100.00
60433;BME280;46286;48.098;11.590;2022-08-21T06:53:45;95634.31;;;15.51;100.00
60433;BME280;46286;48.098;11.590;2022-08-21T06:56:11;95634.09;;;15.61;100.00
60433;BME280;46286;48.098;11.590;2022-08-21T06:58:37;95620.19;;;15.41;100.00
60433;BME280;46286;48.098;11.590;2022-08-21T07:01:03;95619.69;;;15.39;100.00
60433;BME280;46286;48.098;11.590;2022-08-21T07:03:33;95627.03;;;15.42;100.00
60433;BME280;46286;48.098;11.590;2022-08-21T07:05:58;95619.59;;;15.45;100.00
60433;BME280;46286;48.098;11.590;2022-08-21T07:08:26;95616.22;;;15.53;100.00
60433;BME280;46286;48.098;11.590;2022-08-21T07:10:54;95612.03;;;15.74;100.00
60433;BME280;46286;48.098;11.590;2022-08-21T07:13:20;95617.28;;;16.02;100.00
60433;BME280;46286;48.098;11.590;2022-08-21T07:15:46;95608.25;;;16.03;100.00
60433;BME280;46286;48.098;11.590;2022-08-21T07:18:12;95607.66;;;16.06;100.00
60433;BME280;46286;48.098;11.590;2022-08-21T07:20:39;95606.91;;;15.92;100.00
60433;BME280;46286;48.098;11.590;2022-08-21T07:23:13;95608.47;;;15.93;100.00
60433;BME280;46286;48.098;11.590;2022-08-21T07:25:40;95600.28;;;15.81;100.00
60433;BME280;46286;48.098;11.590;2022-08-21T07:28:07;95608.25;;;16.03;100.00
60433;BME280;46286;48.098;11.590;2022-08-21T07:30:32;95597.47;;;15.86;100.00
60433;BME280;46286;48.098;11.590;2022-08-21T07:32:59;95604.13;;;15.97;100.00
60433;BME280;46286;48.098;11.590;2022-08-21T07:35:24;95607.84;;;16.41;100.00
60433;BME280;46286;48.098;11.590;2022-08-21T07:37:49;95596.88;;;16.34;100.00
60433;BME280;46286;48.098;11.590;2022-08-21T07:40:16;95601.31;;;16.16;100.00
60433;BME280;46286;48.098;11.590;2022-08-21T07:42:46;95602.09;;;16.17;100.00
60433;BME280;46286;48.098;11.590;2022-08-21T07:45:13;95612.03;;;16.34;100.00
60433;BME280;46286;48.098;11.590;2022-08-21T07:47:39;95599.06;;;16.32;100.00
60433;BME280;46286;48.098;11.590;2022-08-21T07:50:06;95600.97;;;16.40;100.00
60433;BME280;46286;48.098;11.590;2022-08-21T07:52:33;95601.47;;;16.20;100.00
60433;BME280;46286;48.098;11.590;2022-08-21T07:54:59;95599.78;;;16.01;100.00
60433;BME280;46286;48.098;11.590;2022-08-21T07:57:25;95598.22;;;16.00;100.00
60433;BME280;46286;48.098;11.590;2022-08-21T07:59:50;95599.53;;;16.11;100.00
60433;BME280;46286;48.098;11.590;2022-08-21T08:02:28;95590.84;;;16.20;100.00
60433;BME280;46286;48.098;11.590;2022-08-21T08:04:53;95599.66;;;16.29;100.00
60433;BME280;46286;48.098;11.590;2022-08-21T08:07:19;95594.34;;;16.29;100.00
60433;BME280;46286;48.098;11.590;2022-08-21T08:09:45;95595.81;;;16.67;100.00
60433;BME280;46286;48.098;11.590;2022-08-21T08:12:11;95590.81;;;16.65;100.00
60433;BME280;46286;48.098;11.590;2022-08-21T08:14:37;95592.28;;;16.49;100.00
60433;BME280;46286;48.098;11.590;2022-08-21T08:17:02;95593.69;;;16.55;100.00
60433;BME280;46286;48.098;11.590;2022-08-21T08:19:28;95590.56;;;16.53;100.00
60433;BME280;46286;48.098;11.590;2022-08-21T08:21:54;95584.19;;;16.54;100.00
60433;BME280;46286;48.098;11.590;2022-08-21T08:24:20;95591.19;;;16.50;100.00
60433;BME280;46286;48.098;11.590;2022-08-21T08:26:46;95583.31;;;16.76;100.00
60433;BME280;46286;48.098;11.590;2022-08-21T08:29:12;95588.25;;;16.60;100.00
60433;BME280;46286;48.098;11.590;2022-08-21T08:31:37;95591.50;;;16.79;100.00
60433;BME280;46286;48.098;11.590;2022-08-21T08:34:03;95581.19;;;16.87;100.00
60433;BME280;46286;48.098;11.590;2022-08-21T08:36:35;95583.03;;;16.77;100.00
60433;BME280;46286;48.098;11.590;2022-08-21T08:39:04;95582.16;;;16.91;100.00
60433;BME280;46286;48.098;11.590;2022-08-21T08:41:31;95578.25;;;16.88;100.00
60433;BME280;46286;48.098;11.590;2022-08-21T08:44:06;95589.22;;;16.95;100.00
60433;BME280;46286;48.098;11.590;2022-08-21T08:46:40;95578.78;;;17.17;100.00
60433;BME280;46286;48.098;11.590;2022-08-21T08:49:20;95578.44;;;17.09;100.00
60433;BME280;46286;48.098;11.590;2022-08-21T08:52:17;95583.25;;;17.56;100.00
60433;BME280;46286;48.098;11.590;2022-08-21T08:54:48;95575.72;;;17.49;100.00
60433;BME280;46286;48.098;11.590;2022-08-21T08:57:19;95583.25;;;18.00;100.00
60433;BME280;46286;48.098;11.590;2022-08-21T08:59:50;95585.75;;;17.88;100.00
60433;BME280;46286;48.098;11.590;2022-08-21T09:02:16;95588.88;;;17.90;100.00
60433;BME280;46286;48.098;11.590;2022-08-21T09:04:45;95572.31;;;18.10;100.00
60433;BME280;46286;48.098;11.590;2022-08-21T09:07:18;95574.31;;;18.13;100.00
60433;BME280;46286;48.098;11.590;2022-08-21T09:15:35;95572.91;;;18.07;100.00
60433;BME280;46286;48.098;11.590;2022-08-21T09:24:35;95577.19;;;18.56;100.00
60433;BME280;46286;48.098;11.590;2022-08-21T09:29:33;95572.66;;;19.25;100.00
60433;BME280;46286;48.098;11.590;2022-08-21T09:31:59;95575.25;;;19.63;100.00
60433;BME280;46286;48.098;11.590;2022-08-21T09:34:28;95570.53;;;19.39;100.00
60433;BME280;46286;48.098;11.590;2022-08-21T09:36:54;95577.19;;;19.33;100.00
60433;BME280;46286;48.098;11.590;2022-08-21T09:42:01;95566.50;;;19.33;100.00
60433;BME280;46286;48.098;11.590;2022-08-21T09:44:30;95570.66;;;19.21;100.00
60433;BME280;46286;48.098;11.590;2022-08-21T09:46:57;95560.63;;;19.18;100.00
60433;BME280;46286;48.098;11.590;2022-08-21T09:49:28;95560.75;;;19.01;100.00
60433;BME280;46286;48.098;11.590;2022-08-21T09:51:55;95565.69;;;19.11;100.00
60433;BME280;46286;48.098;11.590;2022-08-21T09:54:26;95553.50;;;19.52;100.00
60433;BME280;46286;48.098;11.590;2022-08-21T09:56:58;95557.53;;;20.01;100.00
60433;BME280;46286;48.098;11.590;2022-08-21T09:59:45;95557.69;;;19.83;100.00
60433;BME280;46286;48.098;11.590;2022-08-21T10:02:32;95557.97;;;19.61;100.00
60433;BME280;46286;48.098;11.590;2022-08-21T10:05:14;95556.22;;;19.65;100.00
60433;BME280;46286;48.098;11.590;2022-08-21T10:07:40;95549.81;;;19.78;100.00
60433;BME280;46286;48.098;11.590;2022-08-21T10:12:42;95546.38;;;20.32;100.00
60433;BME280;46286;48.098;11.590;2022-08-21T10:18:26;95551.94;;;20.39;100.00
60433;BME280;46286;48.098;11.590;2022-08-21T10:21:04;95548.91;;;20.16;100.00
60433;BME280;46286;48.098;11.590;2022-08-21T10:23:53;95540.84;;;20.04;100.00
60433;BME280;46286;48.098;11.590;2022-08-21T10:29:41;95542.31;;;19.80;100.00
60433;BME280;46286;48.098;11.590;2022-08-21T10:32:42;95548.72;;;20.34;100.00
60433;BME280;46286;48.098;11.590;2022-08-21T10:35:14;95541.41;;;21.17;100.00
60433;BME280;46286;48.098;11.590;2022-08-21T10:48:58;95532.38;;;22.63;93.53
60433;BME280;46286;48.098;11.590;2022-08-21T10:54:56;95522.53;;;21.79;96.19
60433;BME280;46286;48.098;11.590;2022-08-21T11:00:03;95525.75;;;21.44;100.00
60433;BME280;46286;48.098;11.590;2022-08-21T11:02:35;95526.03;;;21.26;99.46
60433;BME280;46286;48.098;11.590;2022-08-21T11:05:10;95521.56;;;21.18;100.00
60433;BME280;46286;48.098;11.590;2022-08-21T11:10:21;95519.53;;;21.52;94.56
60433;BME280;46286;48.098;11.590;2022-08-21T11:12:53;95519.38;;;20.96;98.45
60433;BME280;46286;48.098;11.590;2022-08-21T11:15:42;95520.25;;;21.00;100.00
60433;BME280;46286;48.098;11.590;2022-08-21T11:26:41;95506.63;;;21.29;97.78
60433;BME280;46286;48.098;11.590;2022-08-21T11:29:23;95504.84;;;21.21;100.00
60433;BME280;46286;48.098;11.590;2022-08-21T11:35:13;95506.00;;;20.71;92.77
60433;BME280;46286;48.098;11.590;2022-08-21T11:38:13;95505.97;;;20.58;93.33
60433;BME280;46286;48.098;11.590;2022-08-21T11:45:57;95503.75;;;20.36;100.00
60433;BME280;46286;48.098;11.590;2022-08-21T11:51:17;95505.72;;;20.14;100.00
60433;BME280;46286;48.098;11.590;2022-08-21T11:56:41;95502.88;;;20.56;100.00
60433;BME280;46286;48.098;11.590;2022-08-21T11:59:23;95496.31;;;22.01;100.00
60433;BME280;46286;48.098;11.590;2022-08-21T12:01:53;95497.63;;;23.18;96.62
60433;BME280;46286;48.098;11.590;2022-08-21T12:04:31;95500.38;;;24.20;78.81
60433;BME280;46286;48.098;11.590;2022-08-21T12:07:11;95489.75;;;24.27;68.82
60433;BME280;46286;48.098;11.590;2022-08-21T12:09:38;95483.41;;;24.39;63.47
60433;BME280;46286;48.098;11.590;2022-08-21T12:14:51;95489.00;;;24.77;64.40
60433;BME280;46286;48.098;11.590;2022-08-21T12:17:19;95478.22;;;25.30;57.00
60433;BME280;46286;48.098;11.590;2022-08-21T12:19:45;95478.25;;;25.98;53.45
60433;BME280;46286;48.098;11.590;2022-08-21T12:22:21;95473.00;;;26.57;50.72
60433;BME280;46286;48.098;11.590;2022-08-21T12:24:50;95478.41;;;27.17;45.03
60433;BME280;46286;48.098;11.590;2022-08-21T12:27:30;95471.66;;;26.78;47.56
60433;BME280;46286;48.098;11.590;2022-08-21T12:30:00;95465.06;;;26.75;48.53
60433;BME280;46286;48.098;11.590;2022-08-21T12:35:14;95461.78;;;25.69;62.21
60433;BME280;46286;48.098;11.590;2022-08-21T12:37:43;95457.94;;;25.70;55.98
60433;BME280;46286;48.098;11.590;2022-08-21T12:40:17;95456.72;;;26.02;56.11
60433;BME280;46286;48.098;11.590;2022-08-21T12:42:48;95455.94;;;26.01;48.84
60433;BME280;46286;48.098;11.590;2022-08-21T12:45:38;95445.84;;;26.84;56.58
60433;BME280;46286;48.098;11.590;2022-08-21T12:48:18;95449.66;;;27.49;55.15
60433;BME280;46286;48.098;11.590;2022-08-21T12:50:52;95441.63;;;27.82;51.85
60433;BME280;46286;48.098;11.590;2022-08-21T12:53:30;95442.81;;;26.93;51.47
60433;BME280;46286;48.098;11.590;2022-08-21T12:55:57;95440.72;;;26.20;49.19
60433;BME280;46286;48.098;11.590;2022-08-21T12:58:29;95437.09;;;25.67;53.63
60433;BME280;46286;48.098;11.590;2022-08-21T13:01:03;95445.28;;;25.14;61.54
60433;BME280;46286;48.098;11.590;2022-08-21T13:03:30;95440.66;;;26.13;52.20
60433;BME280;46286;48.098;11.590;2022-08-21T13:05:57;95429.97;;;25.86;53.75
60433;BME280;46286;48.098;11.590;2022-08-21T13:08:26;95431.19;;;25.92;50.90
60433;BME280;46286;48.098;11.590;2022-08-21T13:11:03;95429.13;;;26.16;50.66
60433;BME280;46286;48.098;11.590;2022-08-21T13:13:30;95427.53;;;27.26;47.77
60433;BME280;46286;48.098;11.590;2022-08-21T13:15:58;95425.09;;;28.02;55.51
60433;BME280;46286;48.098;11.590;2022-08-21T13:18:27;95426.44;;;27.34;52.77
60433;BME280;46286;48.098;11.590;2022-08-21T13:21:20;95424.72;;;28.25;48.78
60433;BME280;46286;48.098;11.590;2022-08-21T13:23:46;95421.16;;;28.96;42.43
60433;BME280;46286;48.098;11.590;2022-08-21T13:26:20;95416.97;;;28.63;43.16
60433;BME280;46286;48.098;11.590;2022-08-21T13:28:47;95422.31;;;27.83;47.89
60433;BME280;46286;48.098;11.590;2022-08-21T13:31:18;95414.53;;;27.64;52.55
60433;BME280;46286;48.098;11.590;2022-08-21T13:33:47;95414.78;;;27.23;49.13
60433;BME280;46286;48.098;11.590;2022-08-21T13:36:34;95418.41;;;25.48;52.65
60433;BME280;46286;48.098;11.590;2022-08-21T13:39:04;95410.56;;;24.75;55.68
60433;BME280;46286;48.098;11.590;2022-08-21T13:41:33;95408.47;;;24.91;57.63
60433;BME280;46286;48.098;11.590;2022-08-21T13:44:13;95404.44;;;25.38;60.78
60433;BME280;46286;48.098;11.590;2022-08-21T13:46:39;95400.47;;;26.00;55.07
60433;BME280;46286;48.098;11.590;2022-08-21T13:49:06;95394.38;;;26.03;53.80
60433;BME280;46286;48.098;11.590;2022-08-21T13:51:33;95389.47;;;25.79;57.50
60433;BME280;46286;48.098;11.590;2022-08-21T13:53:59;95404.50;;;25.80;54.93
60433;BME280;46286;48.098;11.590;2022-08-21T13:56:29;95403.75;;;25.41;55.72
60433;BME280;46286;48.098;11.590;2022-08-21T13:58:56;95406.28;;;25.00;66.46
60433;BME280;46286;48.098;11.590;2022-08-21T14:01:27;95406.97;;;24.40;65.27
60433;BME280;46286;48.098;11.590;2022-08-21T14:03:56;95415.06;;;24.17;60.79
60433;BME280;46286;48.098;11.590;2022-08-21T14:06:27;95401.28;;;23.95;66.18